Portada
METAR-TAF:

METAR-TAF

Aeroports :

Aeroport Internacional Maiquetía Simón Bolívar

Caracas, Veneçuela

latitud: 10-36N, longitud: 066-59W, altitud: 43 m

Observació

L'informe es va fer fa 14 minuts, a les 01:02 UTC
Vent 11 kt del Est
Temperatura 24°C
Humitat 100%
Pressió 1013 hPa

METAR: SVMI 190102Z AUTO 09011KT NCD 24/24 Q1013

Hora: 21:16 (01:16 UTC)

Pronòstic

L'informe es va fer fa 3 hores i 16 minuts, a les 22:00 UTC
Pronòstic vàlid del 19 a les 00 UTC al 20 a les 00 UTC
Vent 4 kt del Est
Visibilitat 10 km o més
Núvols disperses a una alçada de 1600 ft
Evolucionant progressivament
l' 19 a les 00 UTC al 19 a les 04 UTC
Vent 5 kt del Est
Visibilitat 10 km o més
Núvols disperses a una alçada de 1600 ft

TAF: SVMI 182200Z 1900/2000 09004KT 9999 SCT016 TX29/19Z TN23/07Z BECMG 1900/1904 09005KT 9999 SCT016

Observacions i pronòstics meteorològics de més de 4000 aeroports (METAR i TAF).

Les estacions disponibles són els punts grocs i vermells al mapa.

Posi el ratolí al punt desitjat per veure el nom de l'estació.

Feu clic per veure les observacions i els pronòstics meteorològics.

Per canviar el mapa: feu clic els botons verds amb una creu de color negre per apropar; al botó verd amb un guió per allunyar la imatge; o en les fletxes verdes per a mapes adjacents.


METAR-TAF: